sensor_id;sensor_type;location;lat;lon;timestamp;pressure;altitude;pressure_sealevel;temperature;humidity
48796;BME280;34607;48.520;-1.330;2023-03-25T08:13:04;99938.53;;;9.89;100.00
48796;BME280;34607;48.520;-1.330;2023-03-25T08:15:31;99938.53;;;9.89;99.40
48796;BME280;34607;48.520;-1.330;2023-03-25T08:17:58;99940.25;;;9.90;99.24
48796;BME280;34607;48.520;-1.330;2023-03-25T08:20:26;99944.56;;;9.91;99.13
48796;BME280;34607;48.520;-1.330;2023-03-25T08:22:53;99949.00;;;10.00;98.59
48796;BME280;34607;48.520;-1.330;2023-03-25T08:25:21;99960.44;;;10.20;98.75
48796;BME280;34607;48.520;-1.330;2023-03-25T08:27:48;99968.47;;;10.43;98.20
48796;BME280;34607;48.520;-1.330;2023-03-25T08:30:17;99963.41;;;10.51;96.92
48796;BME280;34607;48.520;-1.330;2023-03-25T08:32:44;99969.47;;;10.55;96.87
48796;BME280;34607;48.520;-1.330;2023-03-25T08:35:18;99960.00;;;10.58;96.64
48796;BME280;34607;48.520;-1.330;2023-03-25T08:37:46;99969.41;;;10.47;96.06
48796;BME280;34607;48.520;-1.330;2023-03-25T08:40:13;99964.22;;;10.45;96.51
48796;BME280;34607;48.520;-1.330;2023-03-25T08:42:42;99935.41;;;10.19;96.08
48796;BME280;34607;48.520;-1.330;2023-03-25T08:45:11;99966.00;;;10.51;96.42
48796;BME280;34607;48.520;-1.330;2023-03-25T08:47:41;99967.75;;;10.57;96.24
48796;BME280;34607;48.520;-1.330;2023-03-25T08:50:10;99978.19;;;10.63;95.84
48796;BME280;34607;48.520;-1.330;2023-03-25T08:52:37;99982.56;;;10.68;95.73
48796;BME280;34607;48.520;-1.330;2023-03-25T08:55:05;99977.44;;;10.75;95.77
48796;BME280;34607;48.520;-1.330;2023-03-25T08:57:33;99980.06;;;10.79;95.37
48796;BME280;34607;48.520;-1.330;2023-03-25T09:00:00;99989.63;;;10.85;94.97
48796;BME280;34607;48.520;-1.330;2023-03-25T09:02:30;99974.25;;;11.02;94.59
48796;BME280;34607;48.520;-1.330;2023-03-25T09:04:59;99984.75;;;11.23;94.36
48796;BME280;34607;48.520;-1.330;2023-03-25T09:07:26;99984.81;;;11.34;93.42
48796;BME280;34607;48.520;-1.330;2023-03-25T09:09:54;99993.41;;;11.22;92.45
48796;BME280;34607;48.520;-1.330;2023-03-25T09:12:21;99989.22;;;11.40;93.21
48796;BME280;34607;48.520;-1.330;2023-03-25T09:14:48;99997.97;;;11.59;93.67
48796;BME280;34607;48.520;-1.330;2023-03-25T09:17:15;100002.31;;;11.63;92.81
48796;BME280;34607;48.520;-1.330;2023-03-25T09:19:43;99996.28;;;11.62;92.62
48796;BME280;34607;48.520;-1.330;2023-03-25T09:22:11;99986.72;;;11.55;92.51
48796;BME280;34607;48.520;-1.330;2023-03-25T09:24:38;100003.16;;;11.59;92.35
48796;BME280;34607;48.520;-1.330;2023-03-25T09:27:06;100005.78;;;11.65;92.57
48796;BME280;34607;48.520;-1.330;2023-03-25T09:29:33;100001.44;;;11.59;92.17
48796;BME280;34607;48.520;-1.330;2023-03-25T09:32:01;99985.84;;;11.53;92.38
48796;BME280;34607;48.520;-1.330;2023-03-25T09:34:28;100005.00;;;11.72;92.17
48796;BME280;34607;48.520;-1.330;2023-03-25T09:36:55;100011.91;;;11.76;91.49
48796;BME280;34607;48.520;-1.330;2023-03-25T09:39:24;99995.44;;;11.68;91.88
48796;BME280;34607;48.520;-1.330;2023-03-25T09:42:03;99989.38;;;11.65;91.30
48796;BME280;34607;48.520;-1.330;2023-03-25T09:44:35;100008.44;;;11.74;92.21
48796;BME280;34607;48.520;-1.330;2023-03-25T09:47:04;100006.75;;;11.79;92.00
48796;BME280;34607;48.520;-1.330;2023-03-25T09:49:36;99982.50;;;11.74;91.90
48796;BME280;34607;48.520;-1.330;2023-03-25T09:52:06;100005.78;;;11.65;92.21
48796;BME280;34607;48.520;-1.330;2023-03-25T09:54:43;100015.38;;;11.77;92.69
48796;BME280;34607;48.520;-1.330;2023-03-25T09:57:16;100015.47;;;11.89;92.34
48796;BME280;34607;48.520;-1.330;2023-03-25T09:59:46;100015.47;;;11.91;91.53
48796;BME280;34607;48.520;-1.330;2023-03-25T10:02:26;100024.09;;;11.90;90.59
48796;BME280;34607;48.520;-1.330;2023-03-25T10:05:17;100026.63;;;11.82;90.13
48796;BME280;34607;48.520;-1.330;2023-03-25T10:07:59;100023.25;;;11.91;91.20
48796;BME280;34607;48.520;-1.330;2023-03-25T10:10:35;100029.41;;;12.07;91.05
48796;BME280;34607;48.520;-1.330;2023-03-25T10:13:11;100026.78;;;12.01;90.22
48796;BME280;34607;48.520;-1.330;2023-03-25T10:15:48;100030.28;;;12.09;90.57
48796;BME280;34607;48.520;-1.330;2023-03-25T10:18:45;100025.03;;;11.96;89.81
48796;BME280;34607;48.520;-1.330;2023-03-25T10:21:19;100031.16;;;12.12;90.09
48796;BME280;34607;48.520;-1.330;2023-03-25T10:23:54;100033.78;;;12.17;89.96
48796;BME280;34607;48.520;-1.330;2023-03-25T10:26:28;100037.25;;;12.16;89.99
48796;BME280;34607;48.520;-1.330;2023-03-25T10:28:59;100009.53;;;12.16;89.89
48796;BME280;34607;48.520;-1.330;2023-03-25T10:31:32;100041.66;;;12.31;89.20
48796;BME280;34607;48.520;-1.330;2023-03-25T10:34:04;100013.91;;;12.27;88.82
48796;BME280;34607;48.520;-1.330;2023-03-25T10:36:35;100031.28;;;12.32;88.96
48796;BME280;34607;48.520;-1.330;2023-03-25T10:39:05;100031.28;;;12.40;89.05
48796;BME280;34607;48.520;-1.330;2023-03-25T10:41:38;100027.81;;;12.38;88.88
48796;BME280;34607;48.520;-1.330;2023-03-25T10:44:08;100030.44;;;12.47;88.96
48796;BME280;34607;48.520;-1.330;2023-03-25T10:46:38;100038.25;;;12.52;88.43
48796;BME280;34607;48.520;-1.330;2023-03-25T10:49:14;100004.41;;;12.24;87.64
48796;BME280;34607;48.520;-1.330;2023-03-25T10:51:43;100041.66;;;12.40;88.59
48796;BME280;34607;48.520;-1.330;2023-03-25T10:54:12;100039.97;;;12.47;88.33
48796;BME280;34607;48.520;-1.330;2023-03-25T10:56:45;100035.66;;;12.50;88.11
48796;BME280;34607;48.520;-1.330;2023-03-25T10:59:18;100035.69;;;12.63;88.15
48796;BME280;34607;48.520;-1.330;2023-03-25T11:01:49;100037.41;;;12.61;88.03
48796;BME280;34607;48.520;-1.330;2023-03-25T11:04:20;100042.63;;;12.67;87.70
48796;BME280;34607;48.520;-1.330;2023-03-25T11:06:52;100034.78;;;12.58;86.93
48796;BME280;34607;48.520;-1.330;2023-03-25T11:09:23;100015.72;;;12.45;86.59
48796;BME280;34607;48.520;-1.330;2023-03-25T11:11:53;100049.56;;;12.63;86.69
48796;BME280;34607;48.520;-1.330;2023-03-25T11:14:22;100046.91;;;12.55;86.33
48796;BME280;34607;48.520;-1.330;2023-03-25T11:16:53;100040.00;;;12.54;86.43
48796;BME280;34607;48.520;-1.330;2023-03-25T11:19:24;100039.16;;;12.69;86.75
48796;BME280;34607;48.520;-1.330;2023-03-25T11:21:54;100049.59;;;12.85;86.24
48796;BME280;34607;48.520;-1.330;2023-03-25T11:24:28;100047.03;;;12.92;86.02
48796;BME280;34607;48.520;-1.330;2023-03-25T11:26:57;100053.94;;;12.87;85.25
48796;BME280;34607;48.520;-1.330;2023-03-25T11:29:26;100051.31;;;12.83;85.60
48796;BME280;34607;48.520;-1.330;2023-03-25T11:31:56;100037.47;;;12.81;85.17
48796;BME280;34607;48.520;-1.330;2023-03-25T11:34:23;100053.06;;;12.93;85.13
48796;BME280;34607;48.520;-1.330;2023-03-25T11:36:53;100057.41;;;12.86;84.53
48796;BME280;34607;48.520;-1.330;2023-03-25T11:39:28;100046.13;;;12.93;85.22
48796;BME280;34607;48.520;-1.330;2023-03-25T11:41:58;100039.22;;;13.00;85.56
48796;BME280;34607;48.520;-1.330;2023-03-25T11:44:27;100045.31;;;13.13;86.02
48796;BME280;34607;48.520;-1.330;2023-03-25T11:46:56;100043.59;;;13.20;85.28
48796;BME280;34607;48.520;-1.330;2023-03-25T11:49:25;100037.50;;;13.01;84.53
48796;BME280;34607;48.520;-1.330;2023-03-25T11:51:56;100039.25;;;12.97;85.50
48796;BME280;34607;48.520;-1.330;2023-03-25T11:54:26;100034.88;;;13.04;85.75
48796;BME280;34607;48.520;-1.330;2023-03-25T11:56:53;99991.59;;;12.90;85.63
48796;BME280;34607;48.520;-1.330;2023-03-25T11:59:24;100031.44;;;13.08;85.31
48796;BME280;34607;48.520;-1.330;2023-03-25T12:02:00;100030.59;;;13.07;85.52
48796;BME280;34607;48.520;-1.330;2023-03-25T12:04:29;100027.13;;;13.13;86.12
48796;BME280;34607;48.520;-1.330;2023-03-25T12:06:58;100030.59;;;13.07;85.88
48796;BME280;34607;48.520;-1.330;2023-03-25T12:09:27;100013.22;;;13.00;85.60
48796;BME280;34607;48.520;-1.330;2023-03-25T12:12:29;100013.22;;;12.88;84.97
48796;BME280;34607;48.520;-1.330;2023-03-25T12:15:15;99987.22;;;12.66;85.79
48796;BME280;34607;48.520;-1.330;2023-03-25T12:17:54;100025.34;;;12.83;86.04
48796;BME280;34607;48.520;-1.330;2023-03-25T12:20:28;100030.53;;;12.72;85.50
48796;BME280;34607;48.520;-1.330;2023-03-25T12:23:01;100030.53;;;12.75;85.57
48796;BME280;34607;48.520;-1.330;2023-03-25T12:25:39;100021.84;;;12.65;85.40
48796;BME280;34607;48.520;-1.330;2023-03-25T12:28:40;100008.81;;;12.51;85.18
48796;BME280;34607;48.520;-1.330;2023-03-25T12:31:22;100009.69;;;12.57;86.07
48796;BME280;34607;48.520;-1.330;2023-03-25T12:34:03;100009.72;;;12.64;85.83
48796;BME280;34607;48.520;-1.330;2023-03-25T12:36:41;100001.94;;;12.80;85.85
48796;BME280;34607;48.520;-1.330;2023-03-25T12:39:21;99997.63;;;12.83;85.37
48796;BME280;34607;48.520;-1.330;2023-03-25T12:41:58;99995.91;;;12.90;85.14
48796;BME280;34607;48.520;-1.330;2023-03-25T12:44:42;99981.19;;;12.75;85.34
48796;BME280;34607;48.520;-1.330;2023-03-25T12:47:22;99995.03;;;12.89;85.29
48796;BME280;34607;48.520;-1.330;2023-03-25T12:50:04;99998.53;;;12.99;85.01
48796;BME280;34607;48.520;-1.330;2023-03-25T12:52:40;99949.13;;;12.99;84.32
48796;BME280;34607;48.520;-1.330;2023-03-25T12:55:22;99989.00;;;13.47;83.43
48796;BME280;34607;48.520;-1.330;2023-03-25T12:58:02;99949.94;;;13.67;82.63
48796;BME280;34607;48.520;-1.330;2023-03-25T13:00:44;99982.72;;;14.22;82.04
48796;BME280;34607;48.520;-1.330;2023-03-25T13:03:38;99976.44;;;14.53;80.58
48796;BME280;34607;48.520;-1.330;2023-03-25T13:06:16;99967.69;;;14.75;79.42
48796;BME280;34607;48.520;-1.330;2023-03-25T13:08:50;99947.50;;;14.99;79.20
48796;BME280;34607;48.520;-1.330;2023-03-25T13:11:22;99955.16;;;15.19;77.80
48796;BME280;34607;48.520;-1.330;2023-03-25T13:13:53;99966.31;;;15.35;77.61
48796;BME280;34607;48.520;-1.330;2023-03-25T13:16:24;99954.50;;;15.87;77.45
48796;BME280;34607;48.520;-1.330;2023-03-25T13:18:58;99943.59;;;16.21;76.13
48796;BME280;34607;48.520;-1.330;2023-03-25T13:21:29;99940.06;;;16.26;74.96
48796;BME280;34607;48.520;-1.330;2023-03-25T13:24:00;99899.16;;;16.22;74.43
48796;BME280;34607;48.520;-1.330;2023-03-25T13:26:31;99924.47;;;16.19;73.80
48796;BME280;34607;48.520;-1.330;2023-03-25T13:29:00;99917.75;;;16.02;73.80
48796;BME280;34607;48.520;-1.330;2023-03-25T13:31:35;99920.28;;;16.07;73.76
48796;BME280;34607;48.520;-1.330;2023-03-25T13:34:18;99910.59;;;16.15;71.52
48796;BME280;34607;48.520;-1.330;2023-03-25T13:36:55;99906.00;;;16.33;73.04
48796;BME280;34607;48.520;-1.330;2023-03-25T13:39:30;99905.00;;;16.41;73.18
48796;BME280;34607;48.520;-1.330;2023-03-25T13:42:02;99890.72;;;16.64;73.47
48796;BME280;34607;48.520;-1.330;2023-03-25T13:44:35;99898.06;;;16.39;72.86
48796;BME280;34607;48.520;-1.330;2023-03-25T13:47:14;99898.63;;;16.61;72.80
48796;BME280;34607;48.520;-1.330;2023-03-25T13:49:49;99884.72;;;16.59;71.81
48796;BME280;34607;48.520;-1.330;2023-03-25T13:52:17;99878.81;;;16.46;71.76
48796;BME280;34607;48.520;-1.330;2023-03-25T13:54:47;99883.84;;;16.57;72.93
48796;BME280;34607;48.520;-1.330;2023-03-25T13:57:44;99879.44;;;16.60;71.36
48796;BME280;34607;48.520;-1.330;2023-03-25T14:00:34;99888.34;;;16.48;72.66
48796;BME280;34607;48.520;-1.330;2023-03-25T14:03:40;99875.72;;;16.75;73.17
48796;BME280;34607;48.520;-1.330;2023-03-25T14:06:29;99868.88;;;17.19;72.37
48796;BME280;34607;48.520;-1.330;2023-03-25T14:09:32;99879.09;;;17.33;69.34
48796;BME280;34607;48.520;-1.330;2023-03-25T14:12:06;99876.97;;;17.06;70.09
48796;BME280;34607;48.520;-1.330;2023-03-25T14:14:39;99886.63;;;17.02;70.15
48796;BME280;34607;48.520;-1.330;2023-03-25T14:17:08;99881.53;;;16.93;71.63
48796;BME280;34607;48.520;-1.330;2023-03-25T14:19:37;99878.06;;;16.92;70.37
48796;BME280;34607;48.520;-1.330;2023-03-25T14:22:13;99877.44;;;16.76;68.35
48796;BME280;34607;48.520;-1.330;2023-03-25T14:24:43;99885.31;;;16.75;69.87
48796;BME280;34607;48.520;-1.330;2023-03-25T14:27:14;99874.88;;;16.73;70.70
48796;BME280;34607;48.520;-1.330;2023-03-25T14:29:45;99879.78;;;16.95;69.75
48796;BME280;34607;48.520;-1.330;2023-03-25T14:32:31;99866.59;;;16.45;68.58
48796;BME280;34607;48.520;-1.330;2023-03-25T14:41:02;99865.22;;;16.21;72.67
48796;BME280;34607;48.520;-1.330;2023-03-25T14:43:32;99871.38;;;16.18;73.03
48796;BME280;34607;48.520;-1.330;2023-03-25T14:46:04;99883.72;;;16.07;73.02
48796;BME280;34607;48.520;-1.330;2023-03-25T14:48:33;99875.91;;;16.05;73.18
48796;BME280;34607;48.520;-1.330;2023-03-25T14:51:21;99879.91;;;15.63;71.82
48796;BME280;34607;48.520;-1.330;2023-03-25T14:54:03;99861.06;;;15.36;73.41
48796;BME280;34607;48.520;-1.330;2023-03-25T14:56:36;99861.91;;;15.40;72.61
48796;BME280;34607;48.520;-1.330;2023-03-25T14:59:08;99835.94;;;15.29;72.23
48796;BME280;34607;48.520;-1.330;2023-03-25T15:01:37;99847.91;;;15.47;72.23
48796;BME280;34607;48.520;-1.330;2023-03-25T15:04:09;99848.75;;;15.49;71.72
48796;BME280;34607;48.520;-1.330;2023-03-25T15:06:37;99856.47;;;15.58;71.76
48796;BME280;34607;48.520;-1.330;2023-03-25T15:09:08;99857.47;;;15.46;71.47
48796;BME280;34607;48.520;-1.330;2023-03-25T15:11:39;99833.31;;;15.32;71.61
48796;BME280;34607;48.520;-1.330;2023-03-25T15:14:09;99849.78;;;15.35;71.68
48796;BME280;34607;48.520;-1.330;2023-03-25T15:16:55;99845.56;;;15.24;71.36
48796;BME280;34607;48.520;-1.330;2023-03-25T15:19:22;99850.66;;;15.34;71.93
48796;BME280;34607;48.520;-1.330;2023-03-25T15:22:17;99842.84;;;15.31;71.73
48796;BME280;34607;48.520;-1.330;2023-03-25T15:25:04;99830.81;;;15.20;70.60
48796;BME280;34607;48.520;-1.330;2023-03-25T15:27:47;99822.22;;;15.11;71.55
48796;BME280;34607;48.520;-1.330;2023-03-25T15:33:48;99789.69;;;14.64;71.14
48796;BME280;34607;48.520;-1.330;2023-03-25T15:42:32;99778.13;;;14.90;68.90
48796;BME280;34607;48.520;-1.330;2023-03-25T15:48:36;99771.47;;;14.61;70.74
48796;BME280;34607;48.520;-1.330;2023-03-25T15:51:24;99775.94;;;14.42;70.74
48796;BME280;34607;48.520;-1.330;2023-03-25T15:56:47;99749.22;;;14.18;71.66
48796;BME280;34607;48.520;-1.330;2023-03-25T15:59:27;99740.72;;;13.96;70.63
48796;BME280;34607;48.520;-1.330;2023-03-25T16:01:55;99715.59;;;13.89;71.80
48796;BME280;34607;48.520;-1.330;2023-03-25T16:04:32;99737.91;;;14.24;71.10
48796;BME280;34607;48.520;-1.330;2023-03-25T16:07:03;99759.59;;;14.28;71.08
48796;BME280;34607;48.520;-1.330;2023-03-25T16:09:31;99763.06;;;14.23;70.33
48796;BME280;34607;48.520;-1.330;2023-03-25T16:12:08;99752.75;;;14.10;69.68
48796;BME280;34607;48.520;-1.330;2023-03-25T16:14:37;99740.66;;;14.07;70.29
48796;BME280;34607;48.520;-1.330;2023-03-25T16:17:05;99758.06;;;14.00;70.19
48796;BME280;34607;48.520;-1.330;2023-03-25T16:19:37;99748.59;;;13.87;70.30
48796;BME280;34607;48.520;-1.330;2023-03-25T16:22:17;99754.59;;;13.98;70.62
48796;BME280;34607;48.520;-1.330;2023-03-25T16:24:47;99753.69;;;14.05;70.63
48796;BME280;34607;48.520;-1.330;2023-03-25T16:27:21;99734.50;;;14.16;70.79
48796;BME280;34607;48.520;-1.330;2023-03-25T16:29:50;99735.56;;;13.89;71.29
48796;BME280;34607;48.520;-1.330;2023-03-25T16:32:20;99737.38;;;13.80;73.08
48796;BME280;34607;48.520;-1.330;2023-03-25T16:34:47;99736.50;;;13.83;72.92
48796;BME280;34607;48.520;-1.330;2023-03-25T16:37:15;99731.28;;;13.83;73.83
48796;BME280;34607;48.520;-1.330;2023-03-25T16:39:48;99722.66;;;13.75;74.20
48796;BME280;34607;48.520;-1.330;2023-03-25T16:42:19;99724.44;;;13.66;74.29
48796;BME280;34607;48.520;-1.330;2023-03-25T16:44:52;99722.84;;;13.47;74.50
48796;BME280;34607;48.520;-1.330;2023-03-25T16:47:19;99706.41;;;13.40;74.99
48796;BME280;34607;48.520;-1.330;2023-03-25T16:49:49;99692.47;;;13.49;74.48
48796;BME280;34607;48.520;-1.330;2023-03-25T16:52:22;99693.41;;;13.37;73.46
48796;BME280;34607;48.520;-1.330;2023-03-25T16:55:30;99690.84;;;13.25;72.31
48796;BME280;34607;48.520;-1.330;2023-03-25T16:57:59;99683.00;;;13.31;73.63
48796;BME280;34607;48.520;-1.330;2023-03-25T17:00:39;99685.59;;;13.28;73.19
48796;BME280;34607;48.520;-1.330;2023-03-25T17:03:12;99690.84;;;13.25;73.17
48796;BME280;34607;48.520;-1.330;2023-03-25T17:05:53;99681.38;;;13.16;72.85
48796;BME280;34607;48.520;-1.330;2023-03-25T17:08:21;99687.44;;;13.09;73.22
48796;BME280;34607;48.520;-1.330;2023-03-25T17:10:51;99690.94;;;13.11;73.56
48796;BME280;34607;48.520;-1.330;2023-03-25T17:13:23;99677.09;;;12.97;73.16
48796;BME280;34607;48.520;-1.330;2023-03-25T17:15:53;99691.00;;;12.86;73.06
48796;BME280;34607;48.520;-1.330;2023-03-25T17:18:22;99691.91;;;12.87;72.87
48796;BME280;34607;48.520;-1.330;2023-03-25T17:20:53;99691.84;;;12.90;73.12
48796;BME280;34607;48.520;-1.330;2023-03-25T17:23:31;99678.00;;;12.86;72.64
48796;BME280;34607;48.520;-1.330;2023-03-25T17:26:00;99696.25;;;12.82;72.61
48796;BME280;34607;48.520;-1.330;2023-03-25T17:28:32;99665.97;;;12.64;72.62
48796;BME280;34607;48.520;-1.330;2023-03-25T17:31:22;99671.16;;;12.64;72.70
48796;BME280;34607;48.520;-1.330;2023-03-25T17:33:51;99662.53;;;12.65;73.49
48796;BME280;34607;48.520;-1.330;2023-03-25T17:36:19;99648.69;;;12.53;73.46
48796;BME280;34607;48.520;-1.330;2023-03-25T17:38:47;99648.69;;;12.57;73.88
48796;BME280;34607;48.520;-1.330;2023-03-25T17:41:18;99647.81;;;12.58;74.31
48796;BME280;34607;48.520;-1.330;2023-03-25T17:43:47;99659.97;;;12.51;74.50
48796;BME280;34607;48.520;-1.330;2023-03-25T17:46:19;99661.69;;;12.49;74.89
48796;BME280;34607;48.520;-1.330;2023-03-25T17:48:46;99646.13;;;12.44;75.37
48796;BME280;34607;48.520;-1.330;2023-03-25T17:51:15;99657.38;;;12.48;75.22
48796;BME280;34607;48.520;-1.330;2023-03-25T17:53:43;99665.16;;;12.42;75.53
48796;BME280;34607;48.520;-1.330;2023-03-25T17:56:11;99655.63;;;12.42;75.36
48796;BME280;34607;48.520;-1.330;2023-03-25T17:58:41;99619.31;;;12.31;75.51
48796;BME280;34607;48.520;-1.330;2023-03-25T18:01:10;99634.00;;;12.46;75.30
48796;BME280;34607;48.520;-1.330;2023-03-25T18:03:44;99614.13;;;12.41;75.86
48796;BME280;34607;48.520;-1.330;2023-03-25T18:06:11;99608.06;;;12.39;76.13
48796;BME280;34607;48.520;-1.330;2023-03-25T18:08:38;99600.31;;;12.29;76.92
48796;BME280;34607;48.520;-1.330;2023-03-25T18:11:08;99585.63;;;12.14;77.32
48796;BME280;34607;48.520;-1.330;2023-03-25T18:13:36;99592.56;;;12.08;78.30
48796;BME280;34607;48.520;-1.330;2023-03-25T18:16:06;99575.28;;;11.97;79.20
48796;BME280;34607;48.520;-1.330;2023-03-25T18:18:33;99598.63;;;12.01;79.40
48796;BME280;34607;48.520;-1.330;2023-03-25T18:21:01;99564.91;;;11.88;80.30
48796;BME280;34607;48.520;-1.330;2023-03-25T18:23:29;99553.66;;;11.75;81.13
48796;BME280;34607;48.520;-1.330;2023-03-25T18:25:56;99550.22;;;11.70;81.51
48796;BME280;34607;48.520;-1.330;2023-03-25T18:28:24;99541.56;;;11.67;82.24
48796;BME280;34607;48.520;-1.330;2023-03-25T18:30:53;99551.13;;;11.58;82.48
48796;BME280;34607;48.520;-1.330;2023-03-25T18:33:22;99559.75;;;11.54;83.04
48796;BME280;34607;48.520;-1.330;2023-03-25T18:35:50;99570.97;;;11.61;82.78
48796;BME280;34607;48.520;-1.330;2023-03-25T18:38:21;99564.06;;;11.57;83.27
48796;BME280;34607;48.520;-1.330;2023-03-25T18:40:50;99549.34;;;11.51;83.71
48796;BME280;34607;48.520;-1.330;2023-03-25T18:43:17;99544.19;;;11.47;83.80
48796;BME280;34607;48.520;-1.330;2023-03-25T18:45:45;99532.97;;;11.40;83.98
48796;BME280;34607;48.520;-1.330;2023-03-25T18:48:13;99529.50;;;11.46;84.34
48796;BME280;34607;48.520;-1.330;2023-03-25T18:50:43;99536.41;;;11.30;85.60
48796;BME280;34607;48.520;-1.330;2023-03-25T18:53:14;99517.41;;;11.23;85.84
48796;BME280;34607;48.520;-1.330;2023-03-25T18:55:42;99522.59;;;11.32;86.00
48796;BME280;34607;48.520;-1.330;2023-03-25T18:58:14;99526.03;;;11.23;86.88
48796;BME280;34607;48.520;-1.330;2023-03-25T19:00:42;99526.94;;;11.22;87.14
48796;BME280;34607;48.520;-1.330;2023-03-25T19:03:09;99494.94;;;11.13;87.43
48796;BME280;34607;48.520;-1.330;2023-03-25T19:05:37;99520.88;;;11.13;88.21
48796;BME280;34607;48.520;-1.330;2023-03-25T19:08:04;99530.38;;;11.11;88.62
48796;BME280;34607;48.520;-1.330;2023-03-25T19:10:33;99519.16;;;11.19;88.38
48796;BME280;34607;48.520;-1.330;2023-03-25T19:13:02;99504.44;;;11.06;89.37
48796;BME280;34607;48.520;-1.330;2023-03-25T19:15:29;99502.72;;;11.11;89.28
48796;BME280;34607;48.520;-1.330;2023-03-25T19:18:03;99491.47;;;11.00;89.53
48796;BME280;34607;48.520;-1.330;2023-03-25T19:20:37;99477.66;;;10.99;89.34
48796;BME280;34607;48.520;-1.330;2023-03-25T19:23:05;99434.47;;;10.71;89.08
48796;BME280;34607;48.520;-1.330;2023-03-25T19:25:32;99508.75;;;11.02;89.35
48796;BME280;34607;48.520;-1.330;2023-03-25T19:27:59;99512.22;;;11.09;88.84
48796;BME280;34607;48.520;-1.330;2023-03-25T19:30:28;99499.25;;;11.08;88.35
48796;BME280;34607;48.520;-1.330;2023-03-25T19:32:55;99503.56;;;10.99;88.44
48796;BME280;34607;48.520;-1.330;2023-03-25T19:35:22;99499.25;;;10.91;88.84
48796;BME280;34607;48.520;-1.330;2023-03-25T19:37:51;99503.56;;;10.93;89.03
48796;BME280;34607;48.520;-1.330;2023-03-25T19:40:22;99503.56;;;10.95;88.67
48796;BME280;34607;48.520;-1.330;2023-03-25T19:42:52;99518.25;;;10.86;88.97
48796;BME280;34607;48.520;-1.330;2023-03-25T19:45:20;99522.56;;;10.87;89.21
48796;BME280;34607;48.520;-1.330;2023-03-25T19:47:49;99514.78;;;10.87;89.73
48796;BME280;34607;48.520;-1.330;2023-03-25T19:50:18;99522.53;;;10.86;90.18
48796;BME280;34607;48.520;-1.330;2023-03-25T19:52:47;99485.38;;;10.65;91.26
48796;BME280;34607;48.520;-1.330;2023-03-25T19:55:15;99484.53;;;10.66;91.52
48796;BME280;34607;48.520;-1.330;2023-03-25T19:57:43;99491.41;;;10.57;92.91
48796;BME280;34607;48.520;-1.330;2023-03-25T20:00:13;99481.06;;;10.49;94.01
48796;BME280;34607;48.520;-1.330;2023-03-25T20:02:42;99475.84;;;10.37;95.21
48796;BME280;34607;48.520;-1.330;2023-03-25T20:05:12;99472.31;;;10.25;96.11
48796;BME280;34607;48.520;-1.330;2023-03-25T20:07:41;99453.31;;;10.17;96.68
48796;BME280;34607;48.520;-1.330;2023-03-25T20:10:11;99460.25;;;10.29;96.14
48796;BME280;34607;48.520;-1.330;2023-03-25T20:12:38;99458.53;;;10.23;96.19
48796;BME280;34607;48.520;-1.330;2023-03-25T20:15:07;99443.81;;;10.13;96.47
48796;BME280;34607;48.520;-1.330;2023-03-25T20:17:37;99449.84;;;10.04;97.25
48796;BME280;34607;48.520;-1.330;2023-03-25T20:20:05;99447.22;;;10.01;97.32
48796;BME280;34607;48.520;-1.330;2023-03-25T20:22:36;99441.19;;;10.07;97.01
48796;BME280;34607;48.520;-1.330;2023-03-25T20:25:04;99442.91;;;9.99;97.97
48796;BME280;34607;48.520;-1.330;2023-03-25T20:27:31;99437.69;;;9.89;98.39
48796;BME280;34607;48.520;-1.330;2023-03-25T20:29:59;99392.75;;;9.63;99.28
48796;BME280;34607;48.520;-1.330;2023-03-25T20:32:26;99375.47;;;9.49;99.91
48796;BME280;34607;48.520;-1.330;2023-03-25T20:34:53;99401.47;;;9.80;100.00
48796;BME280;34607;48.520;-1.330;2023-03-25T20:37:21;99389.34;;;9.74;100.00
48796;BME280;34607;48.520;-1.330;2023-03-25T20:39:51;99383.28;;;9.68;100.00
48796;BME280;34607;48.520;-1.330;2023-03-25T20:42:18;99369.50;;;9.66;100.00
48796;BME280;34607;48.520;-1.330;2023-03-25T20:44:45;99370.38;;;9.69;100.00
48796;BME280;34607;48.520;-1.330;2023-03-25T20:47:12;99379.81;;;9.61;100.00
48796;BME280;34607;48.520;-1.330;2023-03-25T20:49:45;99367.78;;;9.62;100.00
48796;BME280;34607;48.520;-1.330;2023-03-25T20:52:12;99357.47;;;9.65;100.00
48796;BME280;34607;48.520;-1.330;2023-03-25T20:54:39;99341.06;;;9.63;100.00
48796;BME280;34607;48.520;-1.330;2023-03-25T20:57:08;99352.16;;;9.38;100.00
48796;BME280;34607;48.520;-1.330;2023-03-25T20:59:35;99322.88;;;9.40;100.00
48796;BME280;34607;48.520;-1.330;2023-03-25T21:02:02;99320.25;;;9.32;100.00
48796;BME280;34607;48.520;-1.330;2023-03-25T21:04:29;99309.03;;;9.28;100.00
48796;BME280;34607;48.520;-1.330;2023-03-25T21:06:56;99303.03;;;9.28;100.00
48796;BME280;34607;48.520;-1.330;2023-03-25T21:09:23;99283.22;;;9.31;100.00
48796;BME280;34607;48.520;-1.330;2023-03-25T21:11:51;99269.41;;;9.18;100.00
48796;BME280;34607;48.520;-1.330;2023-03-25T21:14:19;99268.53;;;9.18;100.00
48796;BME280;34607;48.520;-1.330;2023-03-25T21:16:46;99273.69;;;9.16;100.00
48796;BME280;34607;48.520;-1.330;2023-03-25T21:19:13;99261.69;;;9.25;100.00
48796;BME280;34607;48.520;-1.330;2023-03-25T21:21:41;99248.78;;;9.28;100.00
48796;BME280;34607;48.520;-1.330;2023-03-25T21:24:08;99211.72;;;9.13;100.00
48796;BME280;34607;48.520;-1.330;2023-03-25T21:26:35;99241.00;;;9.22;100.00
48796;BME280;34607;48.520;-1.330;2023-03-25T21:29:02;99237.53;;;9.16;100.00
48796;BME280;34607;48.520;-1.330;2023-03-25T21:31:31;99238.38;;;9.12;100.00
48796;BME280;34607;48.520;-1.330;2023-03-25T21:33:58;99224.59;;;9.09;100.00
48796;BME280;34607;48.520;-1.330;2023-03-25T21:36:27;99200.44;;;8.97;100.00
48796;BME280;34607;48.520;-1.330;2023-03-25T21:38:55;99223.75;;;9.07;100.00
48796;BME280;34607;48.520;-1.330;2023-03-25T21:41:23;99215.09;;;9.00;100.00
48796;BME280;34607;48.520;-1.330;2023-03-25T21:43:50;99214.22;;;8.99;100.00
48796;BME280;34607;48.520;-1.330;2023-03-25T21:46:18;99190.09;;;8.90;100.00